American Strong — WDJ3172 — position and weather

sailwx.info

Track history (hours):
 
Tides and Currents Weather Stations Pressure Air Temp Water Temp Dewpoint Dewpoint Depression Visibility Wind Speed Wind Dir Waves Ship Positions

American Strong

Owner: American Commercial Lines LLC, Jeffersonville, IN. More information available from US FCC via Universal Licensing System and Coast Guard Vessel Documentation Center.

Last reported at 2018-Feb-20 01:49 UTC. Time now 2018-Feb-20 02:12 UTC.
Position N 28°09' W 096°54'.

Length 26 m; draft 3.1 m.

Type: Towing. MMSI: 367765490.

Date/timePositionNaut miles runAvg speedWind from/ knotsBaromVisibWave heightAir tempDewpointWater temp
2018-Feb-20 01:49N 28°09' W 096°54'0 0.0
2018-Feb-20 01:30N 28°09' W 096°54'0 0.0
2018-Feb-20 00:50N 28°09' W 096°54'0 0.0
2018-Feb-20 00:17N 28°09' W 096°54'0 0.0
2018-Feb-20 00:00N 28°09' W 096°54'0 0.0
2018-Feb-19 23:29N 28°09' W 096°54'0 0.0
2018-Feb-19 22:37N 28°09' W 096°54'0 0.0
2018-Feb-19 22:20N 28°09' W 096°54'0 0.0
2018-Feb-19 22:00N 28°09' W 096°54'0 0.0
2018-Feb-19 21:13N 28°09' W 096°54'0 0.0
2018-Feb-19 20:59N 28°09' W 096°54'0 0.0
2018-Feb-19 20:30N 28°09' W 096°54'0 0.0
2018-Feb-19 20:00N 28°09' W 096°54'3 4.5
2018-Feb-19 19:21N 28°11' W 096°51'2 5.5
2018-Feb-19 18:58N 28°12' W 096°49'3 5.3
2018-Feb-19 18:28N 28°14' W 096°47'5 6.3
2018-Feb-19 17:41N 28°17' W 096°43'28 6.1
2018-Feb-19 13:05N 28°32' W 096°15'1 6.1
2018-Feb-19 12:59N 28°32' W 096°15'3 6.1
2018-Feb-19 12:26N 28°34' W 096°12'15 1.2
2018-Feb-19 00:36N 28°41' W 095°57'0 0.0
2018-Feb-19 00:30N 28°41' W 095°57'0 0.0
2018-Feb-18 23:59N 28°41' W 095°57'2 2.9
2018-Feb-18 23:25N 28°42' W 095°56'0 0.3
2018-Feb-18 23:00N 28°42' W 095°56'22 2.4
2018-Feb-18 13:50N 28°49' W 095°32'0 0.0
2018-Feb-18 13:23N 28°49' W 095°32'0 0.0
2018-Feb-18 12:59N 28°49' W 095°32'0 0.0
2018-Feb-18 12:10N 28°49' W 095°32'0 0.0
2018-Feb-18 12:00N 28°49' W 095°32'0 0.0
2018-Feb-18 11:30N 28°49' W 095°32'0 0.0
2018-Feb-18 10:40N 28°49' W 095°32'0 0.0
2018-Feb-18 10:29N 28°49' W 095°32'0 0.0
2018-Feb-18 10:00N 28°49' W 095°32'0 0.0
2018-Feb-18 09:28N 28°49' W 095°32'0 0.0
2018-Feb-18 08:54N 28°49' W 095°32'0 0.0
2018-Feb-18 08:28N 28°49' W 095°32'0 0.0
2018-Feb-18 08:00N 28°49' W 095°32'0 0.0
2018-Feb-18 07:25N 28°49' W 095°32'0 0.0
2018-Feb-18 07:00N 28°49' W 095°32'0 0.0
2018-Feb-18 06:29N 28°49' W 095°32'0 0.0
2018-Feb-18 05:57N 28°49' W 095°32'0 0.0
2018-Feb-18 05:29N 28°49' W 095°32'0 0.0
2018-Feb-18 05:00N 28°49' W 095°32'0 0.0
2018-Feb-18 04:29N 28°49' W 095°32'0 0.0
2018-Feb-18 04:00N 28°49' W 095°32'0 0.0
2018-Feb-18 03:29N 28°49' W 095°32'0 0.0
2018-Feb-18 02:56N 28°49' W 095°32'0 0.0
2018-Feb-18 02:29N 28°49' W 095°32'0 0.0
2018-Feb-18 01:59N 28°49' W 095°32'0 0.0
2018-Feb-18 01:29N 28°49' W 095°32'0 0.0
2018-Feb-18 00:59N 28°49' W 095°32'0 0.0
2018-Feb-18 00:28N 28°49' W 095°32'31 1.4
2018-Feb-17 02:36N 29°10' W 095°06'0 0.0
2018-Feb-17 02:18N 29°10' W 095°06'0 0.0
2018-Feb-17 01:51N 29°10' W 095°06'0 0.0
2018-Feb-17 01:06N 29°10' W 095°06'0 0.0
2018-Feb-17 01:00N 29°10' W 095°06'0 0.2
2018-Feb-17 00:30N 29°10' W 095°06'3 2.9
2018-Feb-16 23:21N 29°12' W 095°03'19 4.4
2018-Feb-16 18:58N 29°24' W 094°45'1 1.3
2018-Feb-16 18:30N 29°24' W 094°45'2 3.9
2018-Feb-16 17:58N 29°26' W 094°43'3 6.3
2018-Feb-16 17:30N 29°28' W 094°40'13 3.1
2018-Feb-16 13:15N 29°34' W 094°27'2 4.9
2018-Feb-16 12:52N 29°35' W 094°25'2 4.6
2018-Feb-16 12:30N 29°36' W 094°23'2 4.3
2018-Feb-16 12:00N 29°37' W 094°21'0 0.0
2018-Feb-16 11:27N 29°37' W 094°21'0 0.0
2018-Feb-16 11:00N 29°37' W 094°21'0 0.0
2018-Feb-16 10:28N 29°37' W 094°21'0 0.0
2018-Feb-16 10:00N 29°37' W 094°21'0 0.0
2018-Feb-16 09:26N 29°37' W 094°21'0 0.0
2018-Feb-16 08:59N 29°37' W 094°21'0 0.0
2018-Feb-16 08:28N 29°37' W 094°21'0 0.0
2018-Feb-16 07:56N 29°37' W 094°21'0 0.0
2018-Feb-16 07:30N 29°37' W 094°21'0 0.0
2018-Feb-16 06:58N 29°37' W 094°21'0 0.0
2018-Feb-16 06:30N 29°37' W 094°21'0 0.0
2018-Feb-16 06:00N 29°37' W 094°21'0 0.0
2018-Feb-16 05:27N 29°37' W 094°21'0 0.0
2018-Feb-16 05:00N 29°37' W 094°21'0 0.0
2018-Feb-16 04:29N 29°37' W 094°21'0 0.0
2018-Feb-16 03:59N 29°37' W 094°21'0 0.0
2018-Feb-16 03:30N 29°37' W 094°21'0 0.0
2018-Feb-16 03:00N 29°37' W 094°21'0 0.0
2018-Feb-16 02:30N 29°37' W 094°21'0 0.0
2018-Feb-16 02:00N 29°37' W 094°21'0 0.0
2018-Feb-16 01:30N 29°37' W 094°21'0 0.0
2018-Feb-16 01:00N 29°37' W 094°21'0 0.0
2018-Feb-16 00:30N 29°37' W 094°21'0 0.0
2018-Feb-16 00:00N 29°37' W 094°21'2 3.4
2018-Feb-15 23:19N 29°38' W 094°19'2 6.3
2018-Feb-15 23:00N 29°39' W 094°17'3 6.0
2018-Feb-15 22:30N 29°40' W 094°14'3 5.9
2018-Feb-15 22:00N 29°41' W 094°10'3 6.2
2018-Feb-15 21:30N 29°43' W 094°07'3 6.5
2018-Feb-15 21:00N 29°45' W 094°04'3 6.6
2018-Feb-15 20:31N 29°47' W 094°02'3 6.2
2018-Feb-15 20:00N 29°49' W 093°59'3 6.8
2018-Feb-15 19:30N 29°52' W 093°56'4 8.3
2018-Feb-15 19:00N 29°55' W 093°53'4 8.1
2018-Feb-15 18:30N 29°58' W 093°51'4 7.3
2018-Feb-15 18:00N 29°60' W 093°47'0 0.2
2018-Feb-15 17:30N 29°60' W 093°47'1 2.5
2018-Feb-15 17:00N 30°01' W 093°46'0 0.0
2018-Feb-15 16:30N 30°01' W 093°46'0 0.0
2018-Feb-15 16:00N 30°01' W 093°46'0 0.0
2018-Feb-15 15:30N 30°01' W 093°46'0 0.0
2018-Feb-15 15:00N 30°01' W 093°46'0 0.0
2018-Feb-15 14:30N 30°01' W 093°46'0 0.0
2018-Feb-15 13:58N 30°01' W 093°46'0 0.0
2018-Feb-15 13:30N 30°01' W 093°46'0 0.0
2018-Feb-15 13:00N 30°01' W 093°46'0 0.2
2018-Feb-15 12:30N 30°01' W 093°46'0 0.0
2018-Feb-15 12:00N 30°01' W 093°46'0 0.0
2018-Feb-15 11:30N 30°01' W 093°46'0 0.0
2018-Feb-15 11:00N 30°01' W 093°46'0 0.0
2018-Feb-15 10:26N 30°01' W 093°46'0 0.0
2018-Feb-15 10:00N 30°01' W 093°46'0 0.0
2018-Feb-15 09:30N 30°01' W 093°46'0 0.0
2018-Feb-15 09:00N 30°01' W 093°46'0 0.0
2018-Feb-15 08:30N 30°01' W 093°46'0 0.0
2018-Feb-15 08:00N 30°01' W 093°46'0 0.0
2018-Feb-15 07:29N 30°01' W 093°46'0 0.0
2018-Feb-15 07:00N 30°01' W 093°46'0 0.0
2018-Feb-15 06:30N 30°01' W 093°46'0 0.0
2018-Feb-15 06:00N 30°01' W 093°46'0 0.0
2018-Feb-15 05:30N 30°01' W 093°46'0 0.0
2018-Feb-15 05:00N 30°01' W 093°46'0 0.0
2018-Feb-15 04:30N 30°01' W 093°46'0 0.0
2018-Feb-15 04:00N 30°01' W 093°46'0 0.0
2018-Feb-15 03:30N 30°01' W 093°46'0 0.0
2018-Feb-15 03:00N 30°01' W 093°46'0 0.0
2018-Feb-15 02:30N 30°01' W 093°46'0 0.0
2018-Feb-15 02:00N 30°01' W 093°46'0 0.0
2018-Feb-15 01:30N 30°01' W 093°46'0 0.0
2018-Feb-15 00:58N 30°01' W 093°46'0 0.0
2018-Feb-15 00:30N 30°01' W 093°46'0 0.0
2018-Feb-15 00:00N 30°01' W 093°46'0 0.4
2018-Feb-14 23:30N 30°01' W 093°46'3 5.6
2018-Feb-14 23:00N 30°03' W 093°44'2 4.1
2018-Feb-14 22:30N 30°04' W 093°41'2 4.5
2018-Feb-14 22:00N 30°04' W 093°39'3 5.7
2018-Feb-14 21:26N 30°04' W 093°35'3 5.5
2018-Feb-14 20:56N 30°04' W 093°32'2 5.0
2018-Feb-14 20:30N 30°04' W 093°29'0 0.1
2018-Feb-14 20:00N 30°04' W 093°29'0 0.0
2018-Feb-14 19:30N 30°04' W 093°29'0 0.0
2018-Feb-14 19:00N 30°04' W 093°29'0 0.0
2018-Feb-14 18:30N 30°04' W 093°29'0 0.0
2018-Feb-14 18:00N 30°04' W 093°29'0 0.0
2018-Feb-14 17:30N 30°04' W 093°29'0 0.0
2018-Feb-14 17:00N 30°04' W 093°29'0 0.0
2018-Feb-14 16:30N 30°04' W 093°29'0 0.1
2018-Feb-14 16:00N 30°04' W 093°29'0 0.0
2018-Feb-14 15:30N 30°04' W 093°29'0 0.0
2018-Feb-14 15:00N 30°04' W 093°29'0 0.0
2018-Feb-14 14:30N 30°04' W 093°29'0 0.0
2018-Feb-14 14:00N 30°04' W 093°29'0 0.0
2018-Feb-14 13:30N 30°04' W 093°29'0 0.0
2018-Feb-14 13:00N 30°04' W 093°29'0 0.0
2018-Feb-14 12:28N 30°04' W 093°29'0 0.0
2018-Feb-14 11:58N 30°04' W 093°29'0 0.0
2018-Feb-14 11:28N 30°04' W 093°29'0 0.0
2018-Feb-14 10:58N 30°04' W 093°29'0 0.0
2018-Feb-14 10:28N 30°04' W 093°29'0 0.0
2018-Feb-14 09:58N 30°04' W 093°29'0 0.4
2018-Feb-14 09:29N 30°04' W 093°29'3 5.2
2018-Feb-14 08:59N 30°04' W 093°26'3 5.9
2018-Feb-14 08:31N 30°04' W 093°23'1 1.5
2018-Feb-14 07:59N 30°04' W 093°22'1 2.0
2018-Feb-14 07:30N 30°04' W 093°21'3 6.2
2018-Feb-14 07:01N 30°07' W 093°20'4 7.5
2018-Feb-14 06:31N 30°10' W 093°19'1 1.5
2018-Feb-14 05:59N 30°11' W 093°18'0 0.2
2018-Feb-14 05:29N 30°11' W 093°19'0 0.0
2018-Feb-14 04:59N 30°11' W 093°19'0 0.0
2018-Feb-14 04:29N 30°11' W 093°19'0 0.0
2018-Feb-14 03:59N 30°11' W 093°19'0 0.0
2018-Feb-14 03:29N 30°11' W 093°19'0 0.0
2018-Feb-14 02:59N 30°11' W 093°19'0 0.0
2018-Feb-14 02:29N 30°11' W 093°19'0 0.0
2018-Feb-14 01:59N 30°11' W 093°19'0 0.0
2018-Feb-14 01:29N 30°11' W 093°19'0 0.0
2018-Feb-14 00:59N 30°11' W 093°19'0 0.0
2018-Feb-14 00:26N 30°11' W 093°19'0 0.0
2018-Feb-13 23:59N 30°11' W 093°19'0 0.0
2018-Feb-13 23:29N 30°11' W 093°19'0 0.0
2018-Feb-13 22:56N 30°11' W 093°19'0 0.0
2018-Feb-13 22:26N 30°11' W 093°19'0 0.0
2018-Feb-13 21:59N 30°11' W 093°19'0 0.0
2018-Feb-13 21:29N 30°11' W 093°19'0 0.0
2018-Feb-13 20:59N 30°11' W 093°19'0 0.0
2018-Feb-13 20:29N 30°11' W 093°19'0 0.0
2018-Feb-13 19:59N 30°11' W 093°19'0 0.0
2018-Feb-13 19:29N 30°11' W 093°19'0 0.0
2018-Feb-13 18:56N 30°11' W 093°19'0 0.0
2018-Feb-13 18:29N 30°11' W 093°19'0 0.0
2018-Feb-13 17:58N 30°11' W 093°19'0 0.0
2018-Feb-13 17:28N 30°11' W 093°19'0 0.0
2018-Feb-13 16:58N 30°11' W 093°19'0 0.0
2018-Feb-13 16:28N 30°11' W 093°19'0 0.0
2018-Feb-13 15:58N 30°11' W 093°19'0 0.0
2018-Feb-13 15:25N 30°11' W 093°19'0 0.0
2018-Feb-13 14:58N 30°11' W 093°19'0 0.0
2018-Feb-13 14:28N 30°11' W 093°19'0 0.0
2018-Feb-13 13:52N 30°11' W 093°19'0 0.0
2018-Feb-13 13:29N 30°11' W 093°19'0 0.0
2018-Feb-13 12:58N 30°11' W 093°19'0 0.0
2018-Feb-13 12:28N 30°11' W 093°19'0 0.8
2018-Feb-13 12:00N 30°11' W 093°18'2 2.7
2018-Feb-13 11:26N 30°10' W 093°19'2 5.8
2018-Feb-13 11:01N 30°08' W 093°20'3 5.5
2018-Feb-13 10:31N 30°05' W 093°20'2 3.8
2018-Feb-13 10:00N 30°04' W 093°22'0 0.1
2018-Feb-13 09:30N 30°04' W 093°22'0 0.2
2018-Feb-13 08:59N 30°04' W 093°22'0 0.0
2018-Feb-13 08:30N 30°04' W 093°22'0 0.2
2018-Feb-13 07:47N 30°04' W 093°22'0 0.0
2018-Feb-13 07:26N 30°04' W 093°22'0 0.0
2018-Feb-13 06:56N 30°04' W 093°22'0 0.0
2018-Feb-13 06:29N 30°04' W 093°22'0 0.0
2018-Feb-13 05:59N 30°04' W 093°22'0 0.0
2018-Feb-13 05:26N 30°04' W 093°22'0 0.0
2018-Feb-13 04:56N 30°04' W 093°22'0 0.0
2018-Feb-13 04:26N 30°04' W 093°22'0 0.0
2018-Feb-13 03:59N 30°04' W 093°22'0 0.0
2018-Feb-13 03:29N 30°04' W 093°22'0 0.0
2018-Feb-13 02:59N 30°04' W 093°22'0 0.0
2018-Feb-13 02:26N 30°04' W 093°22'0 0.1
2018-Feb-13 01:59N 30°04' W 093°22'0 0.0
2018-Feb-13 01:20N 30°04' W 093°22'0 0.0
2018-Feb-13 00:56N 30°04' W 093°22'0 0.0
2018-Feb-13 00:29N 30°04' W 093°22'0 0.0
2018-Feb-12 23:59N 30°04' W 093°22'0 0.0
2018-Feb-12 23:02N 30°04' W 093°22'0 0.0
2018-Feb-12 22:59N 30°04' W 093°22'0 0.0
2018-Feb-12 22:29N 30°04' W 093°22'0 0.0
2018-Feb-12 21:59N 30°04' W 093°22'0 0.0
2018-Feb-12 21:17N 30°04' W 093°22'0 0.0
2018-Feb-12 20:50N 30°04' W 093°22'0 0.0
2018-Feb-12 20:26N 30°04' W 093°22'0 0.0
2018-Feb-12 19:59N 30°04' W 093°22'0 0.6
2018-Feb-12 19:24N 30°04' W 093°21'0 0.0
2018-Feb-12 18:54N 30°04' W 093°21'0 0.0
2018-Feb-12 18:30N 30°04' W 093°21'1 1.2
2018-Feb-12 17:59N 30°04' W 093°22'1 2.3
2018-Feb-12 17:29N 30°04' W 093°21'2 4.7
2018-Feb-12 16:58N 30°06' W 093°20'0 0.1
2018-Feb-12 16:23N 30°06' W 093°20'2 5.7
2018-Feb-12 16:00N 30°09' W 093°20'3 6.0
2018-Feb-12 15:31N 30°11' W 093°18'0 0.2
2018-Feb-12 14:54N 30°11' W 093°18'0 0.0
2018-Feb-12 14:30N 30°11' W 093°18'0 0.0
2018-Feb-12 14:00N 30°11' W 093°18'0 0.0
2018-Feb-12 13:24N 30°11' W 093°18'0 0.0
2018-Feb-12 13:00N 30°11' W 093°18'0 0.0
2018-Feb-12 12:30N 30°11' W 093°18'0 0.0
2018-Feb-12 11:42N 30°11' W 093°18'0 0.0
2018-Feb-12 11:18N 30°11' W 093°18'0 0.0
2018-Feb-12 10:54N 30°11' W 093°18'0 0.0
2018-Feb-12 10:30N 30°11' W 093°18'0 0.0
2018-Feb-12 09:54N 30°11' W 093°18'0 0.0
2018-Feb-12 09:24N 30°11' W 093°18'0 0.0
2018-Feb-12 09:00N 30°11' W 093°18'0 0.0
2018-Feb-12 08:03N 30°11' W 093°18'0 0.0
2018-Feb-12 08:00N 30°11' W 093°18'0 0.0
2018-Feb-12 07:30N 30°11' W 093°18'0 0.0
2018-Feb-12 06:57N 30°11' W 093°18'0 0.1
2018-Feb-12 06:25N 30°11' W 093°18'0 0.4
2018-Feb-12 05:47N 30°11' W 093°18'0 0.8
2018-Feb-12 05:28N 30°11' W 093°19'0 0.0
2018-Feb-12 02:22N 30°11' W 093°19'0 0.0
2018-Feb-12 01:58N 30°11' W 093°19'0 0.0
2018-Feb-12 01:28N 30°11' W 093°19'0 0.0
2018-Feb-12 00:58N 30°11' W 093°19'0 0.0
2018-Feb-12 00:28N 30°11' W 093°19'0 0.0
2018-Feb-11 23:58N 30°11' W 093°19'0 0.0
2018-Feb-11 23:28N 30°11' W 093°19'0 0.0
2018-Feb-11 22:58N 30°11' W 093°19'0 0.0
2018-Feb-11 22:28N 30°11' W 093°19'0 0.0
2018-Feb-11 21:49N 30°11' W 093°19'0 0.0
2018-Feb-11 20:31N 30°11' W 093°19'0 0.0
2018-Feb-11 20:19N 30°11' W 093°19'0 0.0
2018-Feb-11 19:58N 30°11' W 093°19'0 0.0
2018-Feb-11 19:25N 30°11' W 093°19'0 0.0
2018-Feb-11 18:55N 30°11' W 093°19'0 0.0
2018-Feb-11 18:25N 30°11' W 093°19'0 0.0
2018-Feb-11 17:54N 30°11' W 093°19'0 0.0
2018-Feb-11 17:30N 30°11' W 093°19'0 0.0
2018-Feb-11 17:00N 30°11' W 093°19'0 0.0
2018-Feb-11 16:30N 30°11' W 093°19'0 0.0
2018-Feb-11 16:00N 30°11' W 093°19'0 0.0
2018-Feb-11 15:30N 30°11' W 093°19'0 0.0
2018-Feb-11 15:00N 30°11' W 093°19'0 0.0
2018-Feb-11 14:30N 30°11' W 093°19'0 0.0
2018-Feb-11 14:00N 30°11' W 093°19'0 0.0
2018-Feb-11 13:30N 30°11' W 093°19'0 0.0
2018-Feb-11 12:57N 30°11' W 093°19'0 0.0
2018-Feb-11 12:30N 30°11' W 093°19'0 0.3
2018-Feb-11 12:00N 30°11' W 093°18'0 0.3
2018-Feb-11 11:29N 30°11' W 093°18'1 3.1
2018-Feb-11 11:00N 30°10' W 093°19'2 3.4
2018-Feb-11 10:30N 30°08' W 093°20'2 3.8
2018-Feb-11 10:00N 30°06' W 093°20'0 0.7
2018-Feb-11 09:29N 30°06' W 093°20'0 0.0
2018-Feb-11 08:59N 30°06' W 093°20'0 0.0
2018-Feb-11 08:29N 30°06' W 093°20'0 0.0
2018-Feb-11 07:59N 30°06' W 093°20'0 0.2
2018-Feb-11 07:23N 30°06' W 093°20'1 3.2
2018-Feb-11 07:00N 30°05' W 093°20'2 3.8
2018-Feb-11 06:29N 30°04' W 093°22'0 0.0
2018-Feb-11 06:00N 30°04' W 093°22'0 0.0
2018-Feb-11 05:29N 30°04' W 093°22'0 0.0
2018-Feb-11 04:59N 30°04' W 093°22'0 0.0
2018-Feb-11 04:29N 30°04' W 093°22'0 0.0
2018-Feb-11 03:59N 30°04' W 093°22'0 0.0
2018-Feb-11 03:29N 30°04' W 093°22'0 0.0
2018-Feb-11 02:59N 30°04' W 093°22'0 0.0
2018-Feb-11 02:29N 30°04' W 093°22'0 0.0
2018-Feb-11 01:59N 30°04' W 093°22'0 0.0
2018-Feb-11 01:29N 30°04' W 093°22'0 0.0
2018-Feb-11 00:59N 30°04' W 093°22'0 0.0
2018-Feb-11 00:29N 30°04' W 093°22'0 0.0
2018-Feb-10 23:59N 30°04' W 093°22'0 0.0
2018-Feb-10 23:29N 30°04' W 093°22'0 0.0
2018-Feb-10 22:59N 30°04' W 093°22'0 0.0
2018-Feb-10 22:29N 30°04' W 093°22'0 0.0
2018-Feb-10 21:59N 30°04' W 093°22'0 0.0
2018-Feb-10 21:29N 30°04' W 093°22'0 0.0
2018-Feb-10 20:59N 30°04' W 093°22'0 0.0
2018-Feb-10 20:29N 30°04' W 093°22'0 0.0
2018-Feb-10 19:59N 30°04' W 093°22'0 0.0
2018-Feb-10 19:29N 30°04' W 093°22'0 0.0
2018-Feb-10 18:59N 30°04' W 093°22'0 0.0
2018-Feb-10 18:29N 30°04' W 093°22'0 0.0
2018-Feb-10 17:59N 30°04' W 093°22'0 0.0
2018-Feb-10 17:29N 30°04' W 093°22'0 0.0
2018-Feb-10 16:59N 30°04' W 093°22'0 0.0
2018-Feb-10 16:29N 30°04' W 093°22'0 0.0
2018-Feb-10 15:59N 30°04' W 093°22'0 0.0
2018-Feb-10 15:29N 30°04' W 093°22'0 0.0
2018-Feb-10 14:59N 30°04' W 093°22'0 0.0
2018-Feb-10 14:29N 30°04' W 093°22'0 0.0
2018-Feb-10 13:59N 30°04' W 093°22'0 0.0
2018-Feb-10 13:29N 30°04' W 093°22'0 0.0
2018-Feb-10 12:59N 30°04' W 093°22'0 0.0
2018-Feb-10 12:26N 30°04' W 093°22'0 0.0
2018-Feb-10 11:59N 30°04' W 093°22'0 0.0
2018-Feb-10 11:29N 30°04' W 093°22'0 0.0
2018-Feb-10 10:59N 30°04' W 093°22'0 0.0
2018-Feb-10 10:29N 30°04' W 093°22'0 0.0
2018-Feb-10 09:59N 30°04' W 093°22'0 0.0
2018-Feb-10 09:29N 30°04' W 093°22'0 0.0
2018-Feb-10 08:59N 30°04' W 093°22'0 0.0
2018-Feb-10 08:29N 30°04' W 093°22'0 0.0
2018-Feb-10 07:59N 30°04' W 093°22'0 0.0
2018-Feb-10 07:29N 30°04' W 093°22'0 0.0
2018-Feb-10 06:59N 30°04' W 093°22'0 0.0
2018-Feb-10 06:29N 30°04' W 093°22'0 0.0
2018-Feb-10 05:59N 30°04' W 093°22'0 0.0
2018-Feb-10 05:29N 30°04' W 093°22'0 0.0
2018-Feb-10 04:59N 30°04' W 093°22'0 0.2
2018-Feb-10 04:30N 30°04' W 093°22'0 0.1
2018-Feb-10 03:58N 30°04' W 093°22'0 0.0
2018-Feb-10 03:28N 30°04' W 093°22'0 0.0
2018-Feb-10 02:58N 30°04' W 093°22'0 0.0
2018-Feb-10 02:28N 30°04' W 093°22'0 0.0
2018-Feb-10 01:58N 30°04' W 093°22'  
Track history (hours):
 
Tides and Currents Weather Stations Pressure Air Temp Water Temp Dewpoint Dewpoint Depression Visibility Wind Speed Wind Dir Waves Ship Positions

American Strong

Owner: American Commercial Lines LLC, Jeffersonville, IN. More information available from US FCC via Universal Licensing System and Coast Guard Vessel Documentation Center.

Last reported at 2018-Feb-20 01:49 UTC. Time now 2018-Feb-20 02:12 UTC.
Position N 28°09' W 096°54'.

Length 26 m; draft 3.1 m.

Type: Towing. MMSI: 367765490.

Date/timePositionNaut miles runAvg speedWind from/ knotsBaromVisibWave heightAir tempDewpointWater temp
2018-Feb-20 01:49N 28°09' W 096°54'0 0.0
2018-Feb-20 01:30N 28°09' W 096°54'0 0.0
2018-Feb-20 00:50N 28°09' W 096°54'0 0.0
2018-Feb-20 00:17N 28°09' W 096°54'0 0.0
2018-Feb-20 00:00N 28°09' W 096°54'0 0.0
2018-Feb-19 23:29N 28°09' W 096°54'0 0.0
2018-Feb-19 22:37N 28°09' W 096°54'0 0.0
2018-Feb-19 22:20N 28°09' W 096°54'0 0.0
2018-Feb-19 22:00N 28°09' W 096°54'0 0.0
2018-Feb-19 21:13N 28°09' W 096°54'0 0.0
2018-Feb-19 20:59N 28°09' W 096°54'0 0.0
2018-Feb-19 20:30N 28°09' W 096°54'0 0.0
2018-Feb-19 20:00N 28°09' W 096°54'3 4.5
2018-Feb-19 19:21N 28°11' W 096°51'2 5.5
2018-Feb-19 18:58N 28°12' W 096°49'3 5.3
2018-Feb-19 18:28N 28°14' W 096°47'5 6.3
2018-Feb-19 17:41N 28°17' W 096°43'28 6.1
2018-Feb-19 13:05N 28°32' W 096°15'1 6.1
2018-Feb-19 12:59N 28°32' W 096°15'3 6.1
2018-Feb-19 12:26N 28°34' W 096°12'15 1.2
2018-Feb-19 00:36N 28°41' W 095°57'0 0.0
2018-Feb-19 00:30N 28°41' W 095°57'0 0.0
2018-Feb-18 23:59N 28°41' W 095°57'2 2.9
2018-Feb-18 23:25N 28°42' W 095°56'0 0.3
2018-Feb-18 23:00N 28°42' W 095°56'22 2.4
2018-Feb-18 13:50N 28°49' W 095°32'0 0.0
2018-Feb-18 13:23N 28°49' W 095°32'0 0.0
2018-Feb-18 12:59N 28°49' W 095°32'0 0.0
2018-Feb-18 12:10N 28°49' W 095°32'0 0.0
2018-Feb-18 12:00N 28°49' W 095°32'0 0.0
2018-Feb-18 11:30N 28°49' W 095°32'0 0.0
2018-Feb-18 10:40N 28°49' W 095°32'0 0.0
2018-Feb-18 10:29N 28°49' W 095°32'0 0.0
2018-Feb-18 10:00N 28°49' W 095°32'0 0.0
2018-Feb-18 09:28N 28°49' W 095°32'0 0.0
2018-Feb-18 08:54N 28°49' W 095°32'0 0.0
2018-Feb-18 08:28N 28°49' W 095°32'0 0.0
2018-Feb-18 08:00N 28°49' W 095°32'0 0.0
2018-Feb-18 07:25N 28°49' W 095°32'0 0.0
2018-Feb-18 07:00N 28°49' W 095°32'0 0.0
2018-Feb-18 06:29N 28°49' W 095°32'0 0.0
2018-Feb-18 05:57N 28°49' W 095°32'0 0.0
2018-Feb-18 05:29N 28°49' W 095°32'0 0.0
2018-Feb-18 05:00N 28°49' W 095°32'0 0.0
2018-Feb-18 04:29N 28°49' W 095°32'0 0.0
2018-Feb-18 04:00N 28°49' W 095°32'0 0.0
2018-Feb-18 03:29N 28°49' W 095°32'0 0.0
2018-Feb-18 02:56N 28°49' W 095°32'0 0.0
2018-Feb-18 02:29N 28°49' W 095°32'0 0.0
2018-Feb-18 01:59N 28°49' W 095°32'0 0.0
2018-Feb-18 01:29N 28°49' W 095°32'0 0.0
2018-Feb-18 00:59N 28°49' W 095°32'0 0.0
2018-Feb-18 00:28N 28°49' W 095°32'31 1.4
2018-Feb-17 02:36N 29°10' W 095°06'0 0.0
2018-Feb-17 02:18N 29°10' W 095°06'0 0.0
2018-Feb-17 01:51N 29°10' W 095°06'0 0.0
2018-Feb-17 01:06N 29°10' W 095°06'0 0.0
2018-Feb-17 01:00N 29°10' W 095°06'0 0.2
2018-Feb-17 00:30N 29°10' W 095°06'3 2.9
2018-Feb-16 23:21N 29°12' W 095°03'19 4.4
2018-Feb-16 18:58N 29°24' W 094°45'1 1.3
2018-Feb-16 18:30N 29°24' W 094°45'2 3.9
2018-Feb-16 17:58N 29°26' W 094°43'3 6.3
2018-Feb-16 17:30N 29°28' W 094°40'13 3.1
2018-Feb-16 13:15N 29°34' W 094°27'2 4.9
2018-Feb-16 12:52N 29°35' W 094°25'2 4.6
2018-Feb-16 12:30N 29°36' W 094°23'2 4.3
2018-Feb-16 12:00N 29°37' W 094°21'0 0.0
2018-Feb-16 11:27N 29°37' W 094°21'0 0.0
2018-Feb-16 11:00N 29°37' W 094°21'0 0.0
2018-Feb-16 10:28N 29°37' W 094°21'0 0.0
2018-Feb-16 10:00N 29°37' W 094°21'0 0.0
2018-Feb-16 09:26N 29°37' W 094°21'0 0.0
2018-Feb-16 08:59N 29°37' W 094°21'0 0.0
2018-Feb-16 08:28N 29°37' W 094°21'0 0.0
2018-Feb-16 07:56N 29°37' W 094°21'0 0.0
2018-Feb-16 07:30N 29°37' W 094°21'0 0.0
2018-Feb-16 06:58N 29°37' W 094°21'0 0.0
2018-Feb-16 06:30N 29°37' W 094°21'0 0.0
2018-Feb-16 06:00N 29°37' W 094°21'0 0.0
2018-Feb-16 05:27N 29°37' W 094°21'0 0.0
2018-Feb-16 05:00N 29°37' W 094°21'0 0.0
2018-Feb-16 04:29N 29°37' W 094°21'0 0.0
2018-Feb-16 03:59N 29°37' W 094°21'0 0.0
2018-Feb-16 03:30N 29°37' W 094°21'0 0.0
2018-Feb-16 03:00N 29°37' W 094°21'0 0.0
2018-Feb-16 02:30N 29°37' W 094°21'0 0.0
2018-Feb-16 02:00N 29°37' W 094°21'0 0.0
2018-Feb-16 01:30N 29°37' W 094°21'0 0.0
2018-Feb-16 01:00N 29°37' W 094°21'0 0.0
2018-Feb-16 00:30N 29°37' W 094°21'0 0.0
2018-Feb-16 00:00N 29°37' W 094°21'2 3.4
2018-Feb-15 23:19N 29°38' W 094°19'2 6.3
2018-Feb-15 23:00N 29°39' W 094°17'3 6.0
2018-Feb-15 22:30N 29°40' W 094°14'3 5.9
2018-Feb-15 22:00N 29°41' W 094°10'3 6.2
2018-Feb-15 21:30N 29°43' W 094°07'3 6.5
2018-Feb-15 21:00N 29°45' W 094°04'3 6.6
2018-Feb-15 20:31N 29°47' W 094°02'3 6.2
2018-Feb-15 20:00N 29°49' W 093°59'3 6.8
2018-Feb-15 19:30N 29°52' W 093°56'4 8.3
2018-Feb-15 19:00N 29°55' W 093°53'4 8.1
2018-Feb-15 18:30N 29°58' W 093°51'4 7.3
2018-Feb-15 18:00N 29°60' W 093°47'0 0.2
2018-Feb-15 17:30N 29°60' W 093°47'1 2.5
2018-Feb-15 17:00N 30°01' W 093°46'0 0.0
2018-Feb-15 16:30N 30°01' W 093°46'0 0.0
2018-Feb-15 16:00N 30°01' W 093°46'0 0.0
2018-Feb-15 15:30N 30°01' W 093°46'0 0.0
2018-Feb-15 15:00N 30°01' W 093°46'0 0.0
2018-Feb-15 14:30N 30°01' W 093°46'0 0.0
2018-Feb-15 13:58N 30°01' W 093°46'0 0.0
2018-Feb-15 13:30N 30°01' W 093°46'0 0.0
2018-Feb-15 13:00N 30°01' W 093°46'0 0.2
2018-Feb-15 12:30N 30°01' W 093°46'0 0.0
2018-Feb-15 12:00N 30°01' W 093°46'0 0.0
2018-Feb-15 11:30N 30°01' W 093°46'0 0.0
2018-Feb-15 11:00N 30°01' W 093°46'0 0.0
2018-Feb-15 10:26N 30°01' W 093°46'0 0.0
2018-Feb-15 10:00N 30°01' W 093°46'0 0.0
2018-Feb-15 09:30N 30°01' W 093°46'0 0.0
2018-Feb-15 09:00N 30°01' W 093°46'0 0.0
2018-Feb-15 08:30N 30°01' W 093°46'0 0.0
2018-Feb-15 08:00N 30°01' W 093°46'0 0.0
2018-Feb-15 07:29N 30°01' W 093°46'0 0.0
2018-Feb-15 07:00N 30°01' W 093°46'0 0.0
2018-Feb-15 06:30N 30°01' W 093°46'0 0.0
2018-Feb-15 06:00N 30°01' W 093°46'0 0.0
2018-Feb-15 05:30N 30°01' W 093°46'0 0.0
2018-Feb-15 05:00N 30°01' W 093°46'0 0.0
2018-Feb-15 04:30N 30°01' W 093°46'0 0.0
2018-Feb-15 04:00N 30°01' W 093°46'0 0.0
2018-Feb-15 03:30N 30°01' W 093°46'0 0.0
2018-Feb-15 03:00N 30°01' W 093°46'0 0.0
2018-Feb-15 02:30N 30°01' W 093°46'0 0.0
2018-Feb-15 02:00N 30°01' W 093°46'0 0.0
2018-Feb-15 01:30N 30°01' W 093°46'0 0.0
2018-Feb-15 00:58N 30°01' W 093°46'0 0.0
2018-Feb-15 00:30N 30°01' W 093°46'0 0.0
2018-Feb-15 00:00N 30°01' W 093°46'0 0.4
2018-Feb-14 23:30N 30°01' W 093°46'3 5.6
2018-Feb-14 23:00N 30°03' W 093°44'2 4.1
2018-Feb-14 22:30N 30°04' W 093°41'2 4.5
2018-Feb-14 22:00N 30°04' W 093°39'3 5.7
2018-Feb-14 21:26N 30°04' W 093°35'3 5.5
2018-Feb-14 20:56N 30°04' W 093°32'2 5.0
2018-Feb-14 20:30N 30°04' W 093°29'0 0.1
2018-Feb-14 20:00N 30°04' W 093°29'0 0.0
2018-Feb-14 19:30N 30°04' W 093°29'0 0.0
2018-Feb-14 19:00N 30°04' W 093°29'0 0.0
2018-Feb-14 18:30N 30°04' W 093°29'0 0.0
2018-Feb-14 18:00N 30°04' W 093°29'0 0.0
2018-Feb-14 17:30N 30°04' W 093°29'0 0.0
2018-Feb-14 17:00N 30°04' W 093°29'0 0.0
2018-Feb-14 16:30N 30°04' W 093°29'0 0.1
2018-Feb-14 16:00N 30°04' W 093°29'0 0.0
2018-Feb-14 15:30N 30°04' W 093°29'0 0.0
2018-Feb-14 15:00N 30°04' W 093°29'0 0.0
2018-Feb-14 14:30N 30°04' W 093°29'0 0.0
2018-Feb-14 14:00N 30°04' W 093°29'0 0.0
2018-Feb-14 13:30N 30°04' W 093°29'0 0.0
2018-Feb-14 13:00N 30°04' W 093°29'0 0.0
2018-Feb-14 12:28N 30°04' W 093°29'0 0.0
2018-Feb-14 11:58N 30°04' W 093°29'0 0.0
2018-Feb-14 11:28N 30°04' W 093°29'0 0.0
2018-Feb-14 10:58N 30°04' W 093°29'0 0.0
2018-Feb-14 10:28N 30°04' W 093°29'0 0.0
2018-Feb-14 09:58N 30°04' W 093°29'0 0.4
2018-Feb-14 09:29N 30°04' W 093°29'3 5.2
2018-Feb-14 08:59N 30°04' W 093°26'3 5.9
2018-Feb-14 08:31N 30°04' W 093°23'1 1.5
2018-Feb-14 07:59N 30°04' W 093°22'1 2.0
2018-Feb-14 07:30N 30°04' W 093°21'3 6.2
2018-Feb-14 07:01N 30°07' W 093°20'4 7.5
2018-Feb-14 06:31N 30°10' W 093°19'1 1.5
2018-Feb-14 05:59N 30°11' W 093°18'0 0.2
2018-Feb-14 05:29N 30°11' W 093°19'0 0.0
2018-Feb-14 04:59N 30°11' W 093°19'0 0.0
2018-Feb-14 04:29N 30°11' W 093°19'0 0.0
2018-Feb-14 03:59N 30°11' W 093°19'0 0.0
2018-Feb-14 03:29N 30°11' W 093°19'0 0.0
2018-Feb-14 02:59N 30°11' W 093°19'0 0.0
2018-Feb-14 02:29N 30°11' W 093°19'0 0.0
2018-Feb-14 01:59N 30°11' W 093°19'0 0.0
2018-Feb-14 01:29N 30°11' W 093°19'0 0.0
2018-Feb-14 00:59N 30°11' W 093°19'0 0.0
2018-Feb-14 00:26N 30°11' W 093°19'0 0.0
2018-Feb-13 23:59N 30°11' W 093°19'0 0.0
2018-Feb-13 23:29N 30°11' W 093°19'0 0.0
2018-Feb-13 22:56N 30°11' W 093°19'0 0.0
2018-Feb-13 22:26N 30°11' W 093°19'0 0.0
2018-Feb-13 21:59N 30°11' W 093°19'0 0.0
2018-Feb-13 21:29N 30°11' W 093°19'0 0.0
2018-Feb-13 20:59N 30°11' W 093°19'0 0.0
2018-Feb-13 20:29N 30°11' W 093°19'0 0.0
2018-Feb-13 19:59N 30°11' W 093°19'0 0.0
2018-Feb-13 19:29N 30°11' W 093°19'0 0.0
2018-Feb-13 18:56N 30°11' W 093°19'0 0.0
2018-Feb-13 18:29N 30°11' W 093°19'0 0.0
2018-Feb-13 17:58N 30°11' W 093°19'0 0.0
2018-Feb-13 17:28N 30°11' W 093°19'0 0.0
2018-Feb-13 16:58N 30°11' W 093°19'0 0.0
2018-Feb-13 16:28N 30°11' W 093°19'0 0.0
2018-Feb-13 15:58N 30°11' W 093°19'0 0.0
2018-Feb-13 15:25N 30°11' W 093°19'0 0.0
2018-Feb-13 14:58N 30°11' W 093°19'0 0.0
2018-Feb-13 14:28N 30°11' W 093°19'0 0.0
2018-Feb-13 13:52N 30°11' W 093°19'0 0.0
2018-Feb-13 13:29N 30°11' W 093°19'0 0.0
2018-Feb-13 12:58N 30°11' W 093°19'0 0.0
2018-Feb-13 12:28N 30°11' W 093°19'0 0.8
2018-Feb-13 12:00N 30°11' W 093°18'2 2.7
2018-Feb-13 11:26N 30°10' W 093°19'2 5.8
2018-Feb-13 11:01N 30°08' W 093°20'3 5.5
2018-Feb-13 10:31N 30°05' W 093°20'2 3.8
2018-Feb-13 10:00N 30°04' W 093°22'0 0.1
2018-Feb-13 09:30N 30°04' W 093°22'0 0.2
2018-Feb-13 08:59N 30°04' W 093°22'0 0.0
2018-Feb-13 08:30N 30°04' W 093°22'0 0.2
2018-Feb-13 07:47N 30°04' W 093°22'0 0.0
2018-Feb-13 07:26N 30°04' W 093°22'0 0.0
2018-Feb-13 06:56N 30°04' W 093°22'0 0.0
2018-Feb-13 06:29N 30°04' W 093°22'0 0.0
2018-Feb-13 05:59N 30°04' W 093°22'0 0.0
2018-Feb-13 05:26N 30°04' W 093°22'0 0.0
2018-Feb-13 04:56N 30°04' W 093°22'0 0.0
2018-Feb-13 04:26N 30°04' W 093°22'0 0.0
2018-Feb-13 03:59N 30°04' W 093°22'0 0.0
2018-Feb-13 03:29N 30°04' W 093°22'0 0.0
2018-Feb-13 02:59N 30°04' W 093°22'0 0.0
2018-Feb-13 02:26N 30°04' W 093°22'0 0.1
2018-Feb-13 01:59N 30°04' W 093°22'0 0.0
2018-Feb-13 01:20N 30°04' W 093°22'0 0.0
2018-Feb-13 00:56N 30°04' W 093°22'0 0.0
2018-Feb-13 00:29N 30°04' W 093°22'0 0.0
2018-Feb-12 23:59N 30°04' W 093°22'0 0.0
2018-Feb-12 23:02N 30°04' W 093°22'0 0.0
2018-Feb-12 22:59N 30°04' W 093°22'0 0.0
2018-Feb-12 22:29N 30°04' W 093°22'0 0.0
2018-Feb-12 21:59N 30°04' W 093°22'0 0.0
2018-Feb-12 21:17N 30°04' W 093°22'0 0.0
2018-Feb-12 20:50N 30°04' W 093°22'0 0.0
2018-Feb-12 20:26N 30°04' W 093°22'0 0.0
2018-Feb-12 19:59N 30°04' W 093°22'0 0.6
2018-Feb-12 19:24N 30°04' W 093°21'0 0.0
2018-Feb-12 18:54N 30°04' W 093°21'0 0.0
2018-Feb-12 18:30N 30°04' W 093°21'1 1.2
2018-Feb-12 17:59N 30°04' W 093°22'1 2.3
2018-Feb-12 17:29N 30°04' W 093°21'2 4.7
2018-Feb-12 16:58N 30°06' W 093°20'0 0.1
2018-Feb-12 16:23N 30°06' W 093°20'2 5.7
2018-Feb-12 16:00N 30°09' W 093°20'3 6.0
2018-Feb-12 15:31N 30°11' W 093°18'0 0.2
2018-Feb-12 14:54N 30°11' W 093°18'0 0.0
2018-Feb-12 14:30N 30°11' W 093°18'0 0.0
2018-Feb-12 14:00N 30°11' W 093°18'0 0.0
2018-Feb-12 13:24N 30°11' W 093°18'0 0.0
2018-Feb-12 13:00N 30°11' W 093°18'0 0.0
2018-Feb-12 12:30N 30°11' W 093°18'0 0.0
2018-Feb-12 11:42N 30°11' W 093°18'0 0.0
2018-Feb-12 11:18N 30°11' W 093°18'0 0.0
2018-Feb-12 10:54N 30°11' W 093°18'0 0.0
2018-Feb-12 10:30N 30°11' W 093°18'0 0.0
2018-Feb-12 09:54N 30°11' W 093°18'0 0.0
2018-Feb-12 09:24N 30°11' W 093°18'0 0.0
2018-Feb-12 09:00N 30°11' W 093°18'0 0.0
2018-Feb-12 08:03N 30°11' W 093°18'0 0.0
2018-Feb-12 08:00N 30°11' W 093°18'0 0.0
2018-Feb-12 07:30N 30°11' W 093°18'0 0.0
2018-Feb-12 06:57N 30°11' W 093°18'0 0.1
2018-Feb-12 06:25N 30°11' W 093°18'0 0.4
2018-Feb-12 05:47N 30°11' W 093°18'0 0.8
2018-Feb-12 05:28N 30°11' W 093°19'0 0.0
2018-Feb-12 02:22N 30°11' W 093°19'0 0.0
2018-Feb-12 01:58N 30°11' W 093°19'0 0.0
2018-Feb-12 01:28N 30°11' W 093°19'0 0.0
2018-Feb-12 00:58N 30°11' W 093°19'0 0.0
2018-Feb-12 00:28N 30°11' W 093°19'0 0.0
2018-Feb-11 23:58N 30°11' W 093°19'0 0.0
2018-Feb-11 23:28N 30°11' W 093°19'0 0.0
2018-Feb-11 22:58N 30°11' W 093°19'0 0.0
2018-Feb-11 22:28N 30°11' W 093°19'0 0.0
2018-Feb-11 21:49N 30°11' W 093°19'0 0.0
2018-Feb-11 20:31N 30°11' W 093°19'0 0.0
2018-Feb-11 20:19N 30°11' W 093°19'0 0.0
2018-Feb-11 19:58N 30°11' W 093°19'0 0.0
2018-Feb-11 19:25N 30°11' W 093°19'0 0.0
2018-Feb-11 18:55N 30°11' W 093°19'0 0.0
2018-Feb-11 18:25N 30°11' W 093°19'0 0.0
2018-Feb-11 17:54N 30°11' W 093°19'0 0.0
2018-Feb-11 17:30N 30°11' W 093°19'0 0.0
2018-Feb-11 17:00N 30°11' W 093°19'0 0.0
2018-Feb-11 16:30N 30°11' W 093°19'0 0.0
2018-Feb-11 16:00N 30°11' W 093°19'0 0.0
2018-Feb-11 15:30N 30°11' W 093°19'0 0.0
2018-Feb-11 15:00N 30°11' W 093°19'0 0.0
2018-Feb-11 14:30N 30°11' W 093°19'0 0.0
2018-Feb-11 14:00N 30°11' W 093°19'0 0.0
2018-Feb-11 13:30N 30°11' W 093°19'0 0.0
2018-Feb-11 12:57N 30°11' W 093°19'0 0.0
2018-Feb-11 12:30N 30°11' W 093°19'0 0.3
2018-Feb-11 12:00N 30°11' W 093°18'0 0.3
2018-Feb-11 11:29N 30°11' W 093°18'1 3.1
2018-Feb-11 11:00N 30°10' W 093°19'2 3.4
2018-Feb-11 10:30N 30°08' W 093°20'2 3.8
2018-Feb-11 10:00N 30°06' W 093°20'0 0.7
2018-Feb-11 09:29N 30°06' W 093°20'0 0.0
2018-Feb-11 08:59N 30°06' W 093°20'0 0.0
2018-Feb-11 08:29N 30°06' W 093°20'0 0.0
2018-Feb-11 07:59N 30°06' W 093°20'0 0.2
2018-Feb-11 07:23N 30°06' W 093°20'1 3.2
2018-Feb-11 07:00N 30°05' W 093°20'2 3.8
2018-Feb-11 06:29N 30°04' W 093°22'0 0.0
2018-Feb-11 06:00N 30°04' W 093°22'0 0.0
2018-Feb-11 05:29N 30°04' W 093°22'0 0.0
2018-Feb-11 04:59N 30°04' W 093°22'0 0.0
2018-Feb-11 04:29N 30°04' W 093°22'0 0.0
2018-Feb-11 03:59N 30°04' W 093°22'0 0.0
2018-Feb-11 03:29N 30°04' W 093°22'0 0.0
2018-Feb-11 02:59N 30°04' W 093°22'0 0.0
2018-Feb-11 02:29N 30°04' W 093°22'0 0.0
2018-Feb-11 01:59N 30°04' W 093°22'0 0.0
2018-Feb-11 01:29N 30°04' W 093°22'0 0.0
2018-Feb-11 00:59N 30°04' W 093°22'0 0.0
2018-Feb-11 00:29N 30°04' W 093°22'0 0.0
2018-Feb-10 23:59N 30°04' W 093°22'0 0.0
2018-Feb-10 23:29N 30°04' W 093°22'0 0.0
2018-Feb-10 22:59N 30°04' W 093°22'0 0.0
2018-Feb-10 22:29N 30°04' W 093°22'0 0.0
2018-Feb-10 21:59N 30°04' W 093°22'0 0.0
2018-Feb-10 21:29N 30°04' W 093°22'0 0.0
2018-Feb-10 20:59N 30°04' W 093°22'0 0.0
2018-Feb-10 20:29N 30°04' W 093°22'0 0.0
2018-Feb-10 19:59N 30°04' W 093°22'0 0.0
2018-Feb-10 19:29N 30°04' W 093°22'0 0.0
2018-Feb-10 18:59N 30°04' W 093°22'0 0.0
2018-Feb-10 18:29N 30°04' W 093°22'0 0.0
2018-Feb-10 17:59N 30°04' W 093°22'0 0.0
2018-Feb-10 17:29N 30°04' W 093°22'0 0.0
2018-Feb-10 16:59N 30°04' W 093°22'0 0.0
2018-Feb-10 16:29N 30°04' W 093°22'0 0.0
2018-Feb-10 15:59N 30°04' W 093°22'0 0.0
2018-Feb-10 15:29N 30°04' W 093°22'0 0.0
2018-Feb-10 14:59N 30°04' W 093°22'0 0.0
2018-Feb-10 14:29N 30°04' W 093°22'0 0.0
2018-Feb-10 13:59N 30°04' W 093°22'0 0.0
2018-Feb-10 13:29N 30°04' W 093°22'0 0.0
2018-Feb-10 12:59N 30°04' W 093°22'0 0.0
2018-Feb-10 12:26N 30°04' W 093°22'0 0.0
2018-Feb-10 11:59N 30°04' W 093°22'0 0.0
2018-Feb-10 11:29N 30°04' W 093°22'0 0.0
2018-Feb-10 10:59N 30°04' W 093°22'0 0.0
2018-Feb-10 10:29N 30°04' W 093°22'0 0.0
2018-Feb-10 09:59N 30°04' W 093°22'0 0.0
2018-Feb-10 09:29N 30°04' W 093°22'0 0.0
2018-Feb-10 08:59N 30°04' W 093°22'0 0.0
2018-Feb-10 08:29N 30°04' W 093°22'0 0.0
2018-Feb-10 07:59N 30°04' W 093°22'0 0.0
2018-Feb-10 07:29N 30°04' W 093°22'0 0.0
2018-Feb-10 06:59N 30°04' W 093°22'0 0.0
2018-Feb-10 06:29N 30°04' W 093°22'0 0.0
2018-Feb-10 05:59N 30°04' W 093°22'0 0.0
2018-Feb-10 05:29N 30°04' W 093°22'0 0.0
2018-Feb-10 04:59N 30°04' W 093°22'0 0.2
2018-Feb-10 04:30N 30°04' W 093°22'0 0.1
2018-Feb-10 03:58N 30°04' W 093°22'0 0.0
2018-Feb-10 03:28N 30°04' W 093°22'0 0.0
2018-Feb-10 02:58N 30°04' W 093°22'0 0.0
2018-Feb-10 02:28N 30°04' W 093°22'0 0.0
2018-Feb-10 01:58N 30°04' W 093°22'  

Dump ship's entire track history